Nicholas Njeru

Olheiro-Chefe - Sofapaka
3 Dez 2028
Domingo
Processo

Personalidade

Adaptabilidade (12) Ambição (10) Controvérsia (2) Lealdade (8) Pressão (17) Profissionalismo (15) Espírito Esportivo (14) Temperamento (7)

Perfil

Estilo de Treinamento Democrático
Licença Nacional A
Determinação 2
Gestão de Pessoas 5
Motivação 5
Disciplina 4
Satisfação no Trabalho
100%
Fadiga
0%
Função Olheiro-Chefe
Salário 40.4K p/s
Contrato 14.03.2029

Desempenho

Comportamento Bom
Eficácia do Treinamento
18%
Desenvolvimento do Jogador
30%
Prevenção de Lesões
35%
Implementação Tática
10%

Eventos Recentes

Avaliou um jogador agora
Participou de uma reunião de recrutamento agora
Participou de uma reunião de recrutamento agora
Recomendou um alvo de transferência agora
Avaliou um jogador agora
Avaliou um jogador agora
Avaliou um jogador agora
Avaliou um jogador 7d atrás

Monitorando agora

315
Jogador Clube Status Habilidade Confiança Observado Última observação Último voto
Abdulrahman Hamisu Niger Tornadoes Ativo 81 / 83 40% 6 02.12.2028 -
Mustafa Kizza Nairobi United Ativo 83 / 85 40% 5 02.12.2028 -
Enock Wanyama APS Bomet Ativo 86 / 74 40% 2 02.12.2028 -
Simon Munala Bidco United Ativo 78 / 74 40% 5 01.12.2028 -
Enock Morrison Gor Mahia Ativo 97 / 99 40% 6 01.12.2028 -
Musa Malik Ikorodu City Ativo 104 / 111 40% 3 01.12.2028 -
Olawale Emmanuel Niger Tornadoes Ativo 84 / 94 40% 8 30.11.2028 -
Shariff Musa Gor Mahia Ativo 93 / 93 40% 6 30.11.2028 -
Abdulmalik Sanusi Kano Pillars Ativo 77 / 84 40% 3 30.11.2028 -
Apollo Otieno KCB Ativo 89 / 81 40% 4 29.11.2028 -
Nashon Wekesa KCB Ativo 91 / 78 40% 2 29.11.2028 -
Clinton Asiago Bidco United Ativo 74 / 65 40% 2 29.11.2028 -
Peter Oudu Mathare United Ativo 86 / 91 40% 5 27.11.2028 -
Cliff Oruko Tusker Ativo 78 / 77 40% 5 27.11.2028 -
Joseph Arumala Ikorodu City Ativo 95 / 91 40% 14 26.11.2028 -
Christopher Raila Bidco United Ativo 82 / 76 40% 2 26.11.2028 -
Jonny Smith Wigan Athletic Ativo 110 / 107 40% 1 25.11.2028 -
Patrick Otieno KCB Ativo 89 / 82 40% 1 25.11.2028 -
Humphrey Obina Shabana Ativo 80 / 71 40% 1 23.11.2028 -
Alfred Emoni Bandari Ativo 80 / 79 40% 11 22.11.2028 -
Hernest Malonga Kenya Police Ativo 82 / 91 40% 6 22.11.2028 -
Abubakar Bonni Enyimba Ativo 79 / 76 40% 12 21.11.2028 -
Glen Masava Kakamega Homeboyz Ativo 71 / 79 40% 1 21.11.2028 Mais informações
Samuel Kapen Gor Mahia Ativo 91 / 93 40% 13 18.11.2028 -
Alao Dabani Nasarawa United Ativo 92 / 89 40% 10 18.11.2028 -
Austine Odongo Shabana Ativo 81 / 93 40% 1 18.11.2028 -
William Wadri Bandari Ativo 72 / 80 40% 5 17.11.2028 -
Bertrand Konfor Ngafei Bandari Ativo 77 / 88 40% 2 17.11.2028 -
Chris Erambo Tusker Ativo 87 / 78 40% 3 15.11.2028 -
Ahmad Nafiu Wikki Tourists Ativo 84 / 79 40% 3 15.11.2028 -
Dimpol Omamo Posta Rangers Ativo 62 / 69 40% 1 15.11.2028 -
Bryan Michira Shabana Ativo 84 / 81 40% 4 13.11.2028 -
Boniface Muchiri Ulinzi Stars Ativo 85 / 91 40% 2 13.11.2028 -
Temur Odilov Mara Sugar Ativo 75 / 83 40% 5 08.11.2028 -
Ayanda Tibe Gor Mahia Ativo 86 / 94 40% 1 08.11.2028 -
Josephat Lopaga Kakamega Homeboyz Ativo 89 / 81 40% 7 07.11.2028 -
Erick Zakayo Kenya Police Ativo 85 / 90 40% 2 07.11.2028 -
Joshua John Nasarawa United Ativo 87 / 100 40% 2 07.11.2028 -
Boniface Munyendo AFC Leopards Ativo 81 / 82 40% 3 06.11.2028 -
Humphrey Aroko Kariobangi Sharks Ativo 81 / 76 40% 4 06.11.2028 -
Peter Thiong'o Kakamega Homeboyz Ativo 80 / 86 40% 12 04.11.2028 -
Teddy Dok Tusker Ativo 77 / 75 40% 3 04.11.2028 -
Emmanuel Ndubueze Shooting Stars Ativo 95 / 100 40% 2 03.11.2028 -
John Njuguna Nairobi United Ativo 84 / 70 40% 8 02.11.2028 -
Joseph Abah Remo Stars Ativo 95 / 85 40% 14 02.11.2028 -
Chimobi Igwilo Rangers International Ativo 91 / 99 40% 19 02.11.2028 -
Kabiru Abdullahi Barau Ativo 96 / 89 40% 11 01.11.2028 -
Thomas Omole Tusker Ativo 76 / 75 40% 1 01.11.2028 -
Nupe Godstime Bayelsa United Ativo 95 / 85 40% 2 31.10.2028 -
Joshua Nyatini Kakamega Homeboyz Ativo 98 / 97 40% 2 31.10.2028 -
Idris Ajiya Nasarawa United Ativo 86 / 92 40% 12 30.10.2028 -
Victor Mbaoma Gor Mahia Ativo 95 / 89 40% 8 30.10.2028 -
Ben Whiteman Harrogate Town Ativo 133 / 132 40% 1 27.10.2028 -
Yves Koutiama Kenya Police Ativo 99 / 86 40% 3 23.10.2028 -
Yusuf Mainge Kenya Police Ativo 82 / 82 40% 1 23.10.2028 -
David Sakwa Bandari Ativo 84 / 81 40% 8 22.10.2028 -
Ifeanyi Ihemekwele Enyimba Ativo 99 / 96 40% 2 22.10.2028 -
Caleb Olilo Posta Rangers Ativo 62 / 67 40% 1 21.10.2028 -
Brian Ochieng Mara Sugar Ativo 66 / 66 40% 1 21.10.2028 -
Bryson Jerome Nairobi United Ativo 76 / 83 40% 1 19.10.2028 -
Gideon Manaseh Ikorodu City Ativo 86 / 92 40% 3 18.10.2028 -
Telvin Irungu Muranga Seal Ativo 82 / 65 40% 1 16.10.2028 -
Boniface Onyango Kakamega Homeboyz Ativo 94 / 78 40% 1 15.10.2028 -
Dehinde Ibrahim Bayelsa United Ativo 85 / 99 40% 3 13.10.2028 -
Kevin Okumu Nairobi United Ativo 65 / 77 40% 1 13.10.2028 -
Emmanuel Ajibola Kun Khalifat Ativo 83 / 95 40% 1 13.10.2028 -
Curtis Wekesa APS Bomet Ativo 83 / 78 40% 1 12.10.2028 -
Erickson Mulu Bandari Ativo 76 / 82 40% 1 11.10.2028 -
Promise Itoro Bendel Insurance Ativo 103 / 91 40% 2 09.10.2028 -
Ben Stanley Omondi Gor Mahia Ativo 96 / 79 40% 1 07.10.2028 -
Sadeeq Abdulahi Wikki Tourists Ativo 73 / 84 40% 1 04.10.2028 -
Onuorah Onyedika Kun Khalifat Ativo 79 / 100 40% 2 03.10.2028 -
Ibrahim Shambi Ulinzi Stars Ativo 85 / 69 40% 1 02.10.2028 -
Alpha Onyango Gor Mahia Ativo 103 / 89 40% 1 02.10.2028 -
Mohammed Katana Elect Sport Ativo 86 / 91 40% 3 30.09.2028 -
Ibrahim Yahaya Barau Ativo 102 / 106 40% 3 29.09.2028 -
Jefferson Ramos Ulinzi Stars Ativo 68 / 68 40% 1 29.09.2028 -
Tobi Ige Bendel Insurance Ativo 82 / 106 40% 2 27.09.2028 -
Adam Iliasu CotonTchad Ativo 70 / 67 40% 1 27.09.2028 -
Fadhili Mwinyimvua KCB Ativo 69 / 71 40% 1 27.09.2028 -
Suleiman Badaru US Bougouni Ativo 96 / 80 40% 2 26.09.2028 -
Sylvester Owino Gor Mahia Ativo 93 / 83 40% 1 26.09.2028 -
William Gitama Bandari Ativo 80 / 79 40% 4 22.09.2028 -
Kelly Madada AFC Leopards Ativo 93 / 91 40% 1 22.09.2028 -
Wisdom Obichere Enyimba Ativo 73 / 72 40% 1 17.09.2028 -
Rodgers Kipkemoi APS Bomet Ativo 75 / 74 40% 1 17.09.2028 -
Klinshak Longbak Wikki Tourists Ativo 78 / 80 40% 3 16.09.2028 -
Salisu Ibrahim Warri Wolves Ativo 81 / 89 40% 3 15.09.2028 -
Abdulateef Yusuff FC Diarra Ativo 76 / 92 40% 1 15.09.2028 -
Youssef Dalouzi Renaissance Ativo 95 / 101 40% 5 13.09.2028 -
Diadié Samadiaré Binga Ativo 114 / 109 40% 2 12.09.2028 -
Kareem Yusuff Kwara United Ativo 74 / 67 40% 1 12.09.2028 -
Keegan Ndemi Kariobangi Sharks Ativo 79 / 70 40% 1 10.09.2028 -
Douglas Mokaya Mathare United Ativo 78 / 76 40% 1 08.09.2028 -
Ovella Ochieng KCB Ativo 100 / 96 40% 1 08.09.2028 -
Abdulrahman Garba Muranga Seal Ativo 77 / 71 42% 2 / 1m 06.09.2028 -
Samuel Ayanrinde KCB Ativo 82 / 81 40% 4 01.09.2028 -
James Mazembe Shabana Ativo 80 / 82 40% 2 01.09.2028 -
Kelvin Etemesi KCB Ativo 73 / 73 40% 2 01.09.2028 -
Madaoua Tchiva CotonTchad Ativo 94 / 88 40% 2 30.08.2028 -
Ala Eddine Limane Ulinzi Stars Ativo 84 / 75 40% 1 30.08.2028 -
Nyamawi Beja Nairobi United Ativo 86 / 88 40% 1 29.08.2028 -
Matthew Guillaumier Hamrun Spartans Ativo 122 / 116 40% 2 25.08.2028 -
Benson Omalla Nairobi United Ativo 99 / 89 40% 9 24.08.2028 -
Asamoah Boateng Afriyie Hearts of Oak Ativo 86 / 93 40% 1 24.08.2028 -
Ibifubara Dagogo Ikorodu City Ativo 87 / 82 40% 1 22.08.2028 -
Elly Saenyi Kariobangi Sharks Ativo 82 / 76 40% 2 21.08.2028 -
Sulayman Jallow Vis Pesaro Ativo 99 / 90 40% 5 20.08.2028 -
Andrea Santarcangelo Casarano Ativo 115 / 112 40% 1 20.08.2028 -
King Udoh Pro Patria Ativo 99 / 94 40% 4 15.08.2028 -
Manuele Malotti Livorno Ativo 105 / 96 40% 4 15.08.2028 -
Alessandro Galeandro Campobasso Ativo 105 / 100 40% 2 14.08.2028 -
Chijioke Ahiaeke Kun Khalifat Ativo 79 / 93 40% 2 14.08.2028 -
Shahzodbek Ubaydullayev Gor Mahia Ativo 89 / 89 40% 7 13.08.2028 -
Izzadin Juma Bandari Ativo 82 / 76 40% 1 13.08.2028 -
Federico Mastropietro Carrarese Ativo 110 / 110 40% 2 12.08.2028 -
Vincenzo Millico Casarano Ativo 95 / 94 40% 1 12.08.2028 -
Alessandro Faggioli Triestina Ativo 114 / 109 40% 6 11.08.2028 -
Mbarick Fall Virtus Verona Ativo 87 / 86 40% 2 09.08.2028 -
Alen Vukaj Alcione Milano Ativo 96 / 118 40% 2 08.08.2028 -
Andrea Mattioli Arzignano Ativo 112 / 111 40% 1 08.08.2028 -
Ali Swaleh Ulinzi Stars Relatório pronto 69 / 54 65% 1 07.08.2028 -
Gianluca D'Auria Potenza Ativo 110 / 118 40% 1 07.08.2028 -
Ferdinando Del Sole Foggia Ativo 120 / 96 40% 1 07.08.2028 -
Louis Zecevic-John Colchester United Ativo 107 / 112 40% 1 06.08.2028 -
Ganiyu Wasiu Shooting Stars Ativo 96 / 97 40% 8 04.08.2028 -
Clinton Omondi Ulinzi Stars Ativo 84 / 75 40% 5 01.08.2028 -
Francis Kahiro KCB Ativo 76 / 88 40% 9 01.08.2028 -
Andrea Zammit Valletta Ativo 86 / 74 40% 3 01.08.2028 -
Francesco Castaldo Lumezzane Ativo 112 / 112 40% 2 31.07.2028 -
Harry McKirdy Tranmere Rovers Ativo 108 / 85 40% 8 30.07.2028 -
Nicolò Moranduzzo Renate Ativo 93 / 89 40% 1 29.07.2028 -
Leonardo Ubaldi Cavese Ativo 97 / 87 40% 3 28.07.2028 -
Ibrahim Ashour Masr El Makasa Ativo 108 / 103 40% 3 28.07.2028 -
Zico Asare Harrogate Town Ativo 81 / 76 40% 3 28.07.2028 -
Malik Djibril Picerno Ativo 105 / 102 40% 1 27.07.2028 -
Bashar Musa US Forces Armees Ativo 92 / 92 40% 7 26.07.2028 -
Enrico Baldini Bra Ativo 101 / 94 40% 8 26.07.2028 -
Sam Hart Port Vale Ativo 85 / 89 40% 2 24.07.2028 -
Jacopo Nelli Giana Erminio Ativo 90 / 94 40% 2 24.07.2028 -
Thuto Sesipi AS Bakaridjan Ativo 99 / 102 40% 2 24.07.2028 -
Gabriel Monjes Hamrun Spartans Ativo 111 / 98 40% 7 23.07.2028 -
Alex Stepien-Iwumene Bromley Ativo 84 / 89 40% 4 23.07.2028 -
Andrea Luongo Trento Ativo 109 / 119 40% 5 23.07.2028 -
Raffaele Maria Di Costanzo Cavese Ativo 91 / 85 40% 1 23.07.2028 -
Idris Kanu Barnet Ativo 95 / 89 40% 1 22.07.2028 -
Jacopo Desogus AlbinoLeffe Ativo 109 / 98 40% 1 21.07.2028 -
Mattia Angeloni AlbinoLeffe Ativo 84 / 103 40% 2 19.07.2028 -
Kimarni Smith Newport County Ativo 93 / 89 40% 1 18.07.2028 -
Ademola Adebambo Warri Wolves Ativo 89 / 83 40% 1 18.07.2028 -
Christian D'Urso Triestina Ativo 107 / 122 40% 1 18.07.2028 -
Eetu Vertainen Triestina Ativo 105 / 99 40% 6 17.07.2028 -
Henry Ezeonye Barau Ativo 88 / 76 40% 3 17.07.2028 -
Ayabulela Maxwele Golden Arrows Ativo 101 / 112 40% 1 17.07.2028 -
Michael Spellman Newport County Ativo 90 / 81 40% 1 17.07.2028 -
Marco Bertoli Ospitaletto Ativo 88 / 95 40% 1 17.07.2028 -
Rahul Sharma Pontedera Ativo 98 / 89 40% 3 15.07.2028 -
Derrick Otanga Kakamega Homeboyz Ativo 91 / 80 40% 3 14.07.2028 -
Abdullahi Mohammad Kwara United Ativo 93 / 85 40% 5 14.07.2028 -
Ged Garner Newport County Ativo 83 / 85 40% 6 14.07.2028 -
Marcus Dinanga Bromley Ativo 83 / 79 40% 7 13.07.2028 -
Andrea De Paoli AlbinoLeffe Ativo 95 / 114 40% 2 13.07.2028 -
Paul Odhiambo Ulinzi Stars Ativo 82 / 76 40% 3 11.07.2028 -
Connor Mahoney Barrow AFC Ativo 97 / 88 40% 2 11.07.2028 -
Junior Ajayi Pergolettese Ativo 94 / 103 40% 2 11.07.2028 -
Ty Barnett Mirandés Ativo 102 / 95 40% 1 11.07.2028 -
Michael Jairo Gazelle Ativo 66 / 65 40% 3 08.07.2028 -
Hamza Haoudi Foggia Ativo 107 / 108 40% 4 08.07.2028 -
Nana Ofori Hasaacas Ativo 79 / 76 40% 2 07.07.2028 -
Alberto Rizzo Union Brescia Ativo 120 / 96 40% 1 06.07.2028 -
Brandon Hanlan Doncaster Rovers Ativo 104 / 111 40% 1 06.07.2028 -
Tancredi Vella Giana Erminio Ativo 97 / 96 40% 1 05.07.2028 -
Tyler Walker Barrow AFC Ativo 95 / 83 40% 6 03.07.2028 -
Hassan Beja AFC Leopards Ativo 86 / 86 40% 9 02.07.2028 -
Mattia Esposito Virtus Verona Ativo 97 / 101 40% 1 29.06.2028 -
Raffaele Sibilio Novara Ativo 95 / 94 40% 7 28.06.2028 -
Ismet Sinani Bra Ativo 102 / 95 40% 2 27.06.2028 -
Carlos Richards Bromley Ativo 73 / 75 40% 7 26.06.2028 -
Francesco Gobbi Dolomiti Bellunesi Ativo 85 / 84 40% 4 25.06.2028 -
Adama Traoré Gazelle Garoua Ativo 100 / 94 40% 6 23.06.2028 -
Luca Fabrizi Pianese Ativo 97 / 96 40% 3 22.06.2028 -
Tyshick Mosengo Kenya Police Ativo 81 / 78 40% 4 18.06.2028 -
Mason Bennett Harrogate Town Ativo 94 / 98 40% 13 17.06.2028 -
Mattia Florio Altamura Ativo 94 / 92 40% 4 15.06.2028 -
Maleace Asamoah Wigan Athletic Ativo 96 / 113 40% 1 15.06.2028 -
Reuben Reid Charlton Athletic Ativo 110 / 119 40% 1 15.06.2028 -
Léo Abreu Picerno Ativo 103 / 95 40% 5 14.06.2028 -
Antonino Musso Torres Ativo 97 / 102 40% 1 12.06.2028 -
Nico Valentine Doncaster Rovers Ativo 105 / 108 40% 2 09.06.2028 -
Joe Thomas Newport County Ativo 88 / 82 40% 2 30.05.2028 -
Anthony Glennon Newport County Ativo 98 / 103 40% 1 30.05.2028 -
Alessio Raballo Carrarese Ativo 90 / 95 40% 3 29.05.2028 -
Harrison Addo Wa All Stars Ativo 84 / 100 40% 1 27.05.2028 -
Thamsanqa Mothiba Platinum Stars Ativo 82 / 66 40% 3 25.05.2028 -
Segun Olurontoba Rangers International Ativo 105 / 103 40% 1 25.05.2028 -
Alfredo Bifulco Campobasso Ativo 104 / 106 40% 3 22.05.2028 -
Will Merry Tranmere Rovers Ativo 84 / 92 40% 3 21.05.2028 -
Shilow Tracey Walsall Ativo 110 / 103 40% 5 21.05.2028 -
Jacob Hanson Brentford Ativo 78 / 83 40% 1 20.05.2028 -
Sbusiso Mtshali AS Police Ativo 84 / 73 40% 1 17.05.2028 -
Themba Hlatshwayo Free State Stars Ativo 67 / 67 40% 2 16.05.2028 -
Chauncy Freeman Heart of Lions Ativo 63 / 66 40% 2 15.05.2028 -
Daniel Udoh Salford City Ativo 99 / 92 40% 3 13.05.2028 -
Macaulley Kuma Heart of Lions Ativo 68 / 74 40% 2 12.05.2028 -
Tennai Watson Cambridge United Ativo 113 / 104 40% 2 12.05.2028 -
Tudor Mendel-Idowu Gubbio Ativo 88 / 102 40% 2 11.05.2028 -
Justin Möbius AlbinoLeffe Ativo 113 / 98 40% 2 11.05.2028 -
Joel Ezra Enyimba Ativo 86 / 103 40% 2 10.05.2028 -
Kwandile Gumemde US Bougouni Ativo 86 / 94 40% 4 09.05.2028 -
Thiago Dubroca Military Production Ativo 67 / 89 40% 2 07.05.2028 -
Federico Ragnoli Galli Giana Erminio Ativo 95 / 90 40% 2 07.05.2028 -
Luca Coccolo Pro Vercelli Ativo 96 / 107 40% 1 06.05.2028 -
Aaron McGowan Tranmere Rovers Ativo 84 / 98 40% 6 05.05.2028 -
Giorgio Citterio Pro Patria Ativo 106 / 110 40% 2 05.05.2028 -
Paul Osama Muranga Seal Ativo 65 / 65 30% 1 / 1m 03.05.2028 -
Stevens Goovadia Polokwane City Ativo 89 / 83 40% 1 01.05.2028 -
Prince Maseko AS DGSSIE Ativo 85 / 88 40% 2 30.04.2028 -
Mamadou Coulibaly Foggia Ativo 122 / 102 40% 1 30.04.2028 -
Jaron Vicario Triestina Ativo 105 / 97 40% 1 26.04.2028 -
Antonio Salado Ospitaletto Ativo 95 / 90 40% 2 23.04.2028 -
Kelsey Mooney Accrington Stanley Ativo 95 / 81 40% 3 23.04.2028 -
Innocent Mbairamadji Foullah Edifice Ativo 79 / 75 40% 2 22.04.2028 -
Vincenzo Plescia Latina Ativo 105 / 93 40% 3 22.04.2028 -
Francesco Orlando Cavese Ativo 114 / 111 40% 1 21.04.2028 -
Adams Sanut Bechem United Ativo 90 / 77 40% 2 17.04.2028 -
Samuele Spalluto Campobasso Ativo 106 / 94 40% 2 16.04.2028 -
Hensen Anponsa FC Diarra Ativo 81 / 75 40% 3 13.04.2028 -
Lorenzo Di Livio Triestina Ativo 107 / 114 40% 2 13.04.2028 -
Simone Palombi Alcione Milano Ativo 107 / 118 40% 3 10.04.2028 -
Ange-Kévine Gnabo Bourg-Peronnas Ativo 84 / 80 40% 2 09.04.2028 -
Michael Fabbro Virtus Verona Ativo 92 / 85 40% 1 08.04.2028 -
Kwanele Msomi AS Police Ativo 98 / 79 40% 2 07.04.2028 -
Daniele Ferrandino Pergolettese Ativo 92 / 103 40% 1 07.04.2028 -
Edwin Asamoah Berekum Chelsea Ativo 79 / 93 40% 2 06.04.2028 -
Felice D'Amico Foggia Ativo 91 / 111 40% 1 06.04.2028 -
Matteo Motti Ravenna Ativo 103 / 95 40% 1 06.04.2028 -
Mahamat Adam Ali AS PSI Ativo 88 / 86 40% 3 04.04.2028 -
Augustine Afranie Bechem United Ativo 71 / 80 40% 1 04.04.2028 -
Ahmed Farouk Wadi Degla Ativo 99 / 89 40% 2 02.04.2028 -
Domenico Frare Pineto Ativo 101 / 98 40% 2 30.03.2028 -
Lewis Jamieson Newport County Ativo 113 / 100 40% 2 29.03.2028 -
Eduard Ihnatov Ospitaletto Ativo 95 / 114 40% 1 26.03.2028 -
Rivaldo Mkhize Black Aces Ativo 90 / 86 40% 2 23.03.2028 -
Nicola Dalmonte Trento Ativo 106 / 99 40% 1 22.03.2028 -
Fletcher Boyd Accrington Stanley Ativo 94 / 121 40% 2 21.03.2028 -
Valerio Cinti Siracusa Ativo 84 / 103 40% 1 20.03.2028 -
Alejandro Salas Sorrento Ativo 114 / 103 40% 1 19.03.2028 -
Issa Oumar AS Algoy Ativo 76 / 62 40% 1 18.03.2028 -
Salim Uzair Baafada AS DGSSIE Ativo 68 / 79 40% 1 16.03.2028 -
Alessandro Ghillani Lumezzane Ativo 111 / 101 40% 1 07.03.2028 -
Steven Nufour Inter Allies Ativo 83 / 82 40% 1 03.03.2028 -
Ossama Ashley Salford City Ativo 104 / 105 40% 1 20.02.2028 -
Cristian Carrara Guidonia Montecelio Ativo 103 / 106 40% 1 05.02.2028 -
Omari Patrick Northampton Town Ativo 97 / 104 40% 3 20.01.2028 -
Nicholas Kipkirui KCB Ativo 85 / 80 40% 3 16.01.2028 -
Jim Owili Mara Sugar Ativo 59 / 64 65% 1 02.01.2028 Aprovar
Hansel Ochieng APS Bomet Ativo 85 / 66 40% 10 27.12.2027 -
Dennis Oalo Tusker Ativo 70 / 81 40% 7 25.12.2027 -
Brian Junior Olega Shabana Ativo 67 / 71 40% 4 25.12.2027 -
Augustine Nwaorisa Enyimba Ativo 85 / 86 40% 1 23.12.2027 -
Ally Salum Omar Kariobangi Sharks Ativo 80 / 71 40% 3 20.12.2027 -
Tosin Olawale El-Kanemi Warriors Ativo 85 / 86 40% 5 14.12.2027 -
Eugene Ikutwa Tusker Ativo 88 / 79 40% 1 03.12.2027 -
Michael Karamor Nairobi United Ativo 77 / 82 52% 8 / 1m 28.11.2027 -
Domi Berlanga Cavese Ativo 86 / 86 40% 1 24.11.2027 -
Erick Otieno Shabana Ativo 82 / 71 40% 2 15.11.2027 -
Bashiru Usman Niger Tornadoes Ativo 90 / 97 40% 3 25.10.2027 -
Donald Ange Paterne Mathare United Ativo 61 / 77 40% 2 23.10.2027 -
Eric Kapaito Tusker Ativo 87 / 78 40% 5 08.10.2027 -
Boniface Omondi Kakamega Homeboyz Ativo 88 / 89 40% 3 05.10.2027 -
Marius Ngaradoumbe AS Etat Major Ativo 82 / 80 40% 1 08.09.2027 -
Chinaza Joseph Foullah Edifice Ativo 67 / 56 40% 1 30.07.2027 -
Insa Badji Smouha Ativo 82 / 101 40% 1 30.06.2027 -
Dilan Neves Benfica Ativo 85 / 97 40% 1 16.06.2027 -
Wilson Mwangi Muranga Seal Ativo 82 / 82 42% 1 / 1m 05.05.2027 -
Geordy Ndecket Kenya Police Ativo 93 / 96 30% 1 / 1m 05.05.2027 -
Nehemiah Onchiri Shabana Rejeitado 48 / 47 62% 1 25.01.2027 Rejeitar
Sam Lewis Giana Erminio Ativo 57 / 52 40% 1 24.12.2026 -
Nathan Fisher Rotherham United Ativo 76 / 92 40% 4 23.12.2026 -
Charlie Casper Mirandés Ativo 68 / 90 40% 2 23.12.2026 -
Dermot Mee Huesca Ativo 91 / 105 40% 4 20.12.2026 -
Luke Campbell Bolton Wanderers Ativo 81 / 76 40% 2 19.12.2026 -
Andrew Wogan Stockport County Ativo 82 / 78 40% 2 19.12.2026 -
James Pradic Stevenage Ativo 71 / 89 40% 3 18.12.2026 -
Leonardo Marson Gubbio Ativo 115 / 110 40% 4 17.12.2026 -
Alfie Brooks Mirandés Ativo 81 / 97 40% 1 16.12.2026 -
Kamil Dudek Burton Albion Ativo 76 / 86 40% 2 13.12.2026 -
Caleb Ansen Bromley Ativo 87 / 87 40% 1 12.12.2026 -
Noah Phillips Swindon Town Ativo 75 / 67 40% 3 08.12.2026 -
Byrne Omondi Gor Mahia Ativo 89 / 75 40% 4 07.12.2026 -
Marko Brey Andorra Ativo 95 / 81 40% 2 04.12.2026 -
Alfie McNally Millwall Ativo 78 / 93 40% 2 04.12.2026 -
James Wright Oxford United Ativo 71 / 78 40% 2 03.12.2026 -
Reggie Rose Swindon Town Ativo 60 / 89 40% 2 02.12.2026 -
Luke Hewitson Fleetwood Town Ativo 58 / 88 40% 3 29.11.2026 -
Benjamin Twum Medeama Ativo 84 / 79 40% 1 26.11.2026 -
Jamie Pardington Walsall Ativo 94 / 71 40% 2 25.11.2026 -
Darryl Ombang Mirandés Ativo 75 / 94 40% 3 12.11.2026 -
Alfie Marriott Wigan Athletic Ativo 82 / 73 40% 3 06.11.2026 -
Jonas Mailula US Bougouni Ativo 65 / 64 40% 2 05.11.2026 -
Ben Hughes Swindon Town Ativo 56 / 66 40% 1 04.11.2026 -
Keehan Willows Lincoln City Ativo 85 / 96 40% 2 29.10.2026 -
Nqobani Biyela Maritzburg United Ativo 84 / 90 40% 1 25.10.2026 -
George Micheal Aigle Royal de Moungo Ativo 94 / 64 40% 2 19.10.2026 -
Evans Omondi Ouma Mara Sugar Ativo 74 / 61 40% 1 16.10.2026 -
Harry French Pontedera Ativo 91 / 99 40% 2 15.10.2026 -
Brad Young Bristol Rovers Ativo 66 / 83 40% 1 14.10.2026 -
Muttaka Musa Kano Pillars Ativo 73 / 83 40% 2 11.10.2026 -
Filip Marschall Stevenage Ativo 123 / 126 40% 3 10.10.2026 -
Kwanele Nkabi Chippa United Ativo 74 / 77 40% 2 09.10.2026 -
Arthur Nasta Crawley Town Ativo 70 / 54 40% 1 05.10.2026 -
Morgan Ambuka APS Bomet Ativo 69 / 79 40% 1 01.10.2026 -
Tom Smith Colchester United Ativo 86 / 84 40% 1 29.09.2026 -
David Odoyo Shabana Ativo 61 / 72 58% 1 10.08.2026 -
Godfrey Joseph Niger Tornadoes Ativo 77 / 80 40% 1 03.08.2026 -